Time;durP1;ratioP1;P1;durP2;ratioP2;P2;SDS_P1;SDS_P2;PMS_P1;PMS_P2;Temp;Humidity;BMP_temperature;BMP_pressure;BME280_temperature;BME280_humidity;BME280_pressure;Samples;Min_cycle;Max_cycle;Signal;HPM_P1;HPM_P2
2023/06/29 00:01:25;;;;;;;1.70;1.50;;;26.00;48.10;;;;;;5032775;28;20468;-66
2023/06/29 00:03:50;;;;;;;1.80;1.40;;;26.00;48.10;;;;;;5032873;28;20600;-67
2023/06/29 00:06:17;;;;;;;1.53;1.33;;;26.10;48.20;;;;;;5032727;28;20278;-67
2023/06/29 00:08:43;;;;;;;1.83;1.63;;;26.00;48.10;;;;;;5031529;28;20172;-67
2023/06/29 00:11:08;;;;;;;1.70;1.40;;;26.00;48.10;;;;;;5032736;28;20949;-67
2023/06/29 00:13:34;;;;;;;1.83;1.30;;;26.00;48.10;;;;;;5032692;28;20172;-67
2023/06/29 00:16:00;;;;;;;1.60;1.50;;;26.00;48.20;;;;;;5031885;28;20206;-67
2023/06/29 00:18:30;;;;;;;1.70;1.30;;;26.00;48.20;;;;;;5031434;28;20183;-67
2023/06/29 00:20:57;;;;;;;1.37;1.27;;;26.10;48.20;;;;;;5032646;28;20600;-67
2023/06/29 00:23:24;;;;;;;3.17;1.20;;;26.00;48.20;;;;;;5032699;28;20410;-67
2023/06/29 00:25:52;;;;;;;1.53;1.30;;;26.00;48.20;;;;;;5032832;28;20939;-67
2023/06/29 00:28:18;;;;;;;1.70;1.60;;;26.00;48.20;;;;;;5032548;28;20411;-67
2023/06/29 00:30:43;;;;;;;1.30;1.10;;;26.00;48.20;;;;;;5032581;28;20433;-67
2023/06/29 00:33:09;;;;;;;1.57;1.37;;;26.00;48.20;;;;;;5032494;28;20234;-67
2023/06/29 00:35:35;;;;;;;1.40;1.17;;;26.00;48.20;;;;;;5032400;28;20561;-66
2023/06/29 00:38:00;;;;;;;1.67;1.23;;;26.00;48.20;;;;;;5032390;28;20187;-67
2023/06/29 00:40:26;;;;;;;1.57;1.40;;;26.00;48.20;;;;;;5032451;28;20175;-67
2023/06/29 00:42:53;;;;;;;1.50;1.37;;;26.00;48.30;;;;;;5032266;28;20278;-66
2023/06/29 00:45:18;;;;;;;1.50;1.17;;;26.00;48.30;;;;;;5032258;28;20203;-67
2023/06/29 00:47:44;;;;;;;1.50;1.40;;;26.00;48.30;;;;;;5032460;28;20441;-67
2023/06/29 00:50:11;;;;;;;1.40;1.30;;;26.00;48.30;;;;;;5032147;28;20274;-67
2023/06/29 00:52:37;;;;;;;1.60;1.40;;;26.00;48.30;;;;;;5032066;28;20553;-66
2023/06/29 00:55:02;;;;;;;1.40;1.30;;;26.00;48.30;;;;;;5032051;28;20918;-67
2023/06/29 00:57:29;;;;;;;1.40;1.30;;;26.00;48.30;;;;;;5031993;28;20175;-67
2023/06/29 00:59:59;;;;;;;1.40;1.30;;;26.00;48.30;;;;;;5032293;28;20187;-65
2023/06/29 01:02:25;;;;;;;1.50;1.37;;;26.00;48.30;;;;;;5031887;28;20883;-67
2023/06/29 01:04:51;;;;;;;1.30;1.13;;;26.00;48.40;;;;;;5031968;28;20863;-67
2023/06/29 01:07:36;;;;;;;1.50;1.40;;;26.00;48.40;;;;;;5031946;28;20469;-68
2023/06/29 01:10:03;;;;;;;1.20;1.10;;;26.00;48.30;;;;;;5032260;28;20398;-67
2023/06/29 01:12:29;;;;;;;1.73;1.40;;;26.00;48.40;;;;;;5031820;28;20424;-67
2023/06/29 01:14:55;;;;;;;1.23;1.13;;;26.00;48.40;;;;;;5031877;28;20895;-68
2023/06/29 01:17:25;;;;;;;1.30;1.17;;;26.00;48.40;;;;;;5031818;28;20203;-68
2023/06/29 01:19:52;;;;;;;1.30;1.20;;;26.00;48.40;;;;;;5032056;28;20907;-67
2023/06/29 01:22:35;;;;;;;1.43;1.30;;;26.00;48.40;;;;;;5031798;28;21046;-66
2023/06/29 01:25:01;;;;;;;1.30;1.20;;;26.00;48.40;;;;;;5032152;28;20752;-67
2023/06/29 01:27:27;;;;;;;1.50;1.40;;;26.00;48.50;;;;;;5034893;28;20417;-67
2023/06/29 01:29:55;;;;;;;1.40;1.10;;;26.00;48.50;;;;;;5035902;28;20406;-66
2023/06/29 01:32:34;;;;;;;1.43;1.20;;;26.00;48.50;;;;;;5035925;28;20590;-67
2023/06/29 01:35:01;;;;;;;1.23;1.13;;;26.00;48.50;;;;;;5035725;28;20489;-67
2023/06/29 01:37:35;;;;;;;1.80;1.50;;;26.00;48.50;;;;;;5036096;28;20449;-67
2023/06/29 01:40:06;;;;;;;1.50;1.40;;;26.00;48.50;;;;;;5035767;28;20394;-67
2023/06/29 01:42:32;;;;;;;1.23;1.10;;;26.00;48.50;;;;;;5035816;28;20534;-66
2023/06/29 01:45:04;;;;;;;1.20;1.10;;;26.00;48.50;;;;;;5035871;28;20414;-66
2023/06/29 01:47:30;;;;;;;1.40;1.00;;;26.00;48.50;;;;;;5035627;28;20394;-67
2023/06/29 01:49:56;;;;;;;1.30;1.00;;;25.90;48.50;;;;;;5035414;28;20430;-67
2023/06/29 01:52:22;;;;;;;1.30;1.07;;;26.00;48.50;;;;;;5035290;28;20785;-67
2023/06/29 01:54:48;;;;;;;1.60;1.50;;;26.00;48.50;;;;;;5035322;28;20786;-67
2023/06/29 01:57:14;;;;;;;1.40;1.10;;;26.00;48.50;;;;;;5035444;28;20434;-67
2023/06/29 01:59:40;;;;;;;1.37;1.27;;;26.00;48.50;;;;;;5035448;28;20409;-67
2023/06/29 02:02:06;;;;;;;1.40;1.30;;;26.00;48.50;;;;;;5035118;28;20579;-67
2023/06/29 02:04:32;;;;;;;1.37;1.17;;;26.00;48.50;;;;;;5035389;28;20398;-68
2023/06/29 02:06:58;;;;;;;1.33;1.23;;;26.00;48.50;;;;;;5034992;28;20516;-67
2023/06/29 02:09:23;;;;;;;1.30;1.20;;;25.90;48.50;;;;;;5035039;28;20927;-68
2023/06/29 02:11:49;;;;;;;1.70;1.60;;;26.00;48.60;;;;;;5034939;28;20649;-67
2023/06/29 02:14:17;;;;;;;1.50;1.13;;;26.00;48.60;;;;;;5034959;28;20178;-67
2023/06/29 02:16:43;;;;;;;1.20;1.10;;;25.90;48.50;;;;;;5034810;28;20200;-67
2023/06/29 02:19:09;;;;;;;2.07;1.50;;;26.00;48.60;;;;;;5034849;28;20414;-67
2023/06/29 02:21:34;;;;;;;1.43;1.20;;;25.90;48.50;;;;;;5034975;28;20450;-67
2023/06/29 02:24:00;;;;;;;1.37;1.20;;;25.90;48.50;;;;;;5034777;28;20179;-67
2023/06/29 02:26:26;;;;;;;1.27;1.17;;;26.00;48.60;;;;;;5033363;28;20683;-66
2023/06/29 02:28:52;;;;;;;1.30;1.20;;;25.90;48.50;;;;;;5034673;28;20171;-67
2023/06/29 02:31:17;;;;;;;1.73;1.47;;;25.90;48.60;;;;;;5034633;28;20904;-67
2023/06/29 02:33:44;;;;;;;1.60;1.20;;;26.00;48.60;;;;;;5034560;28;20667;-67
2023/06/29 02:36:10;;;;;;;1.53;1.20;;;25.90;48.60;;;;;;5034441;28;20226;-67
2023/06/29 02:38:35;;;;;;;1.33;1.00;;;25.90;48.50;;;;;;5033587;28;20434;-67
2023/06/29 02:41:01;;;;;;;1.33;1.17;;;25.90;48.50;;;;;;5034377;28;20544;-67
2023/06/29 02:43:26;;;;;;;1.53;1.43;;;25.90;48.50;;;;;;5034427;28;20245;-67
2023/06/29 02:45:52;;;;;;;1.60;1.40;;;25.90;48.50;;;;;;5034289;28;20191;-66
2023/06/29 02:48:17;;;;;;;1.40;1.20;;;25.90;48.50;;;;;;5034351;28;20204;-67
2023/06/29 02:50:43;;;;;;;1.13;1.03;;;26.00;48.50;;;;;;5034151;28;20668;-67
2023/06/29 02:53:11;;;;;;;1.30;1.00;;;26.00;48.50;;;;;;5034266;28;20180;-67
2023/06/29 02:55:37;;;;;;;1.60;1.27;;;25.90;48.50;;;;;;5034058;28;20245;-67
2023/06/29 02:58:03;;;;;;;2.20;1.30;;;25.90;48.50;;;;;;5034115;28;20411;-67
2023/06/29 03:00:28;;;;;;;1.10;1.00;;;25.90;48.40;;;;;;5034017;28;20211;-67
2023/06/29 03:02:54;;;;;;;2.60;1.13;;;25.90;48.50;;;;;;5032756;28;20210;-67
2023/06/29 03:05:19;;;;;;;1.77;1.37;;;26.00;48.50;;;;;;5033918;28;20333;-67
2023/06/29 03:07:45;;;;;;;1.40;1.27;;;26.00;48.50;;;;;;5034213;28;20167;-67
2023/06/29 03:10:10;;;;;;;1.40;1.20;;;26.00;48.50;;;;;;5033872;28;20179;-67
2023/06/29 03:12:36;;;;;;;1.37;1.10;;;26.00;48.50;;;;;;5033815;28;20675;-66
2023/06/29 03:15:01;;;;;;;1.40;1.20;;;26.00;48.50;;;;;;5033732;28;20245;-68
2023/06/29 03:17:27;;;;;;;1.33;1.23;;;26.00;48.50;;;;;;5033753;28;20251;-67
2023/06/29 03:19:53;;;;;;;1.30;1.10;;;26.00;48.50;;;;;;5033686;28;20180;-67
2023/06/29 03:22:18;;;;;;;1.30;1.10;;;26.00;48.50;;;;;;5033586;28;20200;-66
2023/06/29 03:24:44;;;;;;;1.27;1.17;;;26.00;48.50;;;;;;5033898;28;20171;-67
2023/06/29 03:27:11;;;;;;;1.17;1.07;;;26.00;48.50;;;;;;5033567;28;20187;-67
2023/06/29 03:29:36;;;;;;;1.30;1.13;;;26.00;48.50;;;;;;5033489;28;20190;-67
2023/06/29 03:32:02;;;;;;;1.23;1.13;;;26.00;48.50;;;;;;5033765;28;20481;-67
2023/06/29 03:34:28;;;;;;;1.33;1.23;;;26.00;48.50;;;;;;5033467;28;20665;-67
2023/06/29 03:36:53;;;;;;;1.40;1.20;;;26.00;48.50;;;;;;5033304;28;20223;-67
2023/06/29 03:39:19;;;;;;;1.30;1.20;;;26.00;48.50;;;;;;5033313;28;20183;-67
2023/06/29 03:41:44;;;;;;;1.27;1.17;;;26.00;48.50;;;;;;5033155;28;20248;-67
2023/06/29 03:44:10;;;;;;;1.40;1.30;;;26.00;48.50;;;;;;5033230;28;20653;-66
2023/06/29 03:46:36;;;;;;;1.30;1.10;;;26.00;48.50;;;;;;5033113;28;20748;-66
2023/06/29 03:49:01;;;;;;;1.40;1.10;;;26.00;48.50;;;;;;5032944;28;20164;-67
2023/06/29 03:51:27;;;;;;;1.50;1.30;;;26.00;48.50;;;;;;5033146;28;20175;-67
2023/06/29 03:53:52;;;;;;;1.40;1.20;;;26.00;48.50;;;;;;5033029;28;20249;-66
2023/06/29 03:56:18;;;;;;;1.27;1.17;;;26.00;49.10;;;;;;5032953;28;20746;-68
2023/06/29 03:58:44;;;;;;;1.23;1.10;;;26.00;48.50;;;;;;5032907;28;20171;-68
2023/06/29 04:01:09;;;;;;;1.37;1.20;;;26.00;48.50;;;;;;5032846;28;20251;-67
2023/06/29 04:03:35;;;;;;;1.30;1.20;;;26.00;48.50;;;;;;5032836;28;20168;-67
2023/06/29 04:06:00;;;;;;;1.43;1.30;;;26.00;48.50;;;;;;5032772;28;20195;-67
2023/06/29 04:08:27;;;;;;;1.40;1.20;;;26.00;48.50;;;;;;5032728;28;20229;-67
2023/06/29 04:10:53;;;;;;;1.10;1.00;;;26.00;48.50;;;;;;5032686;28;20163;-67
2023/06/29 04:13:19;;;;;;;1.37;1.20;;;26.00;48.50;;;;;;5032912;28;20429;-67
2023/06/29 04:15:44;;;;;;;1.20;1.00;;;26.00;48.50;;;;;;5032482;28;20661;-68
2023/06/29 04:18:10;;;;;;;1.20;1.10;;;26.00;48.50;;;;;;5032501;28;20549;-67
2023/06/29 04:20:36;;;;;;;1.20;1.00;;;26.10;48.60;;;;;;5032540;28;20171;-67
2023/06/29 04:23:02;;;;;;;1.40;1.30;;;26.10;48.60;;;;;;5032659;28;20590;-67
2023/06/29 04:25:28;;;;;;;1.30;1.10;;;26.10;48.60;;;;;;5032353;28;20426;-67
2023/06/29 04:27:53;;;;;;;1.30;1.20;;;26.10;48.60;;;;;;5032412;28;20179;-67
2023/06/29 04:30:19;;;;;;;1.20;1.07;;;26.10;48.60;;;;;;5032461;28;20247;-67
2023/06/29 04:32:45;;;;;;;1.10;1.00;;;26.10;48.60;;;;;;5032381;28;20669;-66
2023/06/29 04:35:11;;;;;;;1.37;1.27;;;26.10;48.60;;;;;;5032291;28;20176;-67
2023/06/29 04:37:40;;;;;;;1.43;1.27;;;26.10;48.60;;;;;;5032280;28;20468;-67
2023/06/29 04:40:09;;;;;;;1.67;1.20;;;26.10;48.60;;;;;;5031662;28;20226;-67
2023/06/29 04:42:46;;;;;;;1.20;0.97;;;26.10;48.60;;;;;;5032141;28;20482;-67
2023/06/29 04:45:17;;;;;;;1.50;1.40;;;26.10;48.60;;;;;;5032070;28;20398;-67
2023/06/29 04:47:46;;;;;;;1.33;1.20;;;26.10;48.60;;;;;;5032528;28;20540;-68
2023/06/29 04:50:13;;;;;;;1.50;1.20;;;26.10;48.50;;;;;;5031059;28;20803;-65
2023/06/29 04:52:40;;;;;;;1.50;1.20;;;26.10;48.50;;;;;;5032408;28;20812;-66
2023/06/29 04:55:06;;;;;;;1.30;1.13;;;26.10;48.50;;;;;;5032361;28;20903;-67
2023/06/29 04:57:32;;;;;;;1.10;1.00;;;26.20;48.60;;;;;;5031076;28;20414;-66
2023/06/29 04:59:58;;;;;;;1.13;1.03;;;26.20;48.60;;;;;;5032061;28;20778;-67
2023/06/29 05:02:23;;;;;;;1.10;0.87;;;26.20;48.60;;;;;;5031731;28;20346;-67
2023/06/29 05:04:49;;;;;;;1.50;1.23;;;26.20;48.60;;;;;;5031918;28;20171;-67
2023/06/29 05:07:15;;;;;;;1.10;0.90;;;26.20;48.60;;;;;;5031639;28;20215;-67
2023/06/29 05:09:41;;;;;;;1.57;1.47;;;26.20;48.60;;;;;;5031850;28;20171;-67
2023/06/29 05:12:09;;;;;;;2.47;2.20;;;26.20;48.50;;;;;;5031674;28;20410;-67
2023/06/29 05:14:34;;;;;;;2.80;2.30;;;26.20;48.30;;;;;;5031894;28;20198;-66
2023/06/29 05:17:00;;;;;;;2.40;2.20;;;26.20;48.20;;;;;;5031772;28;21096;-68
2023/06/29 05:19:26;;;;;;;3.50;2.23;;;26.20;48.10;;;;;;5032037;28;20175;-67
2023/06/29 05:21:51;;;;;;;2.80;2.60;;;26.20;48.00;;;;;;5030438;28;20587;-67
2023/06/29 05:24:17;;;;;;;2.33;2.13;;;26.20;48.00;;;;;;5031742;28;20602;-66
2023/06/29 05:26:42;;;;;;;2.37;2.10;;;26.20;48.00;;;;;;5030920;28;20200;-66
2023/06/29 05:29:08;;;;;;;2.27;2.07;;;26.20;47.90;;;;;;5031980;28;20168;-67
2023/06/29 05:31:34;;;;;;;2.60;2.30;;;26.20;47.90;;;;;;5031752;28;20176;-67
2023/06/29 05:33:59;;;;;;;3.00;2.20;;;26.20;47.90;;;;;;5031655;28;20172;-66
2023/06/29 05:36:26;;;;;;;3.00;2.40;;;26.20;47.90;;;;;;5030273;28;20282;-67
2023/06/29 05:38:52;;;;;;;2.70;2.17;;;26.20;47.90;;;;;;5031599;28;20618;-66
2023/06/29 05:41:17;;;;;;;3.47;2.70;;;26.20;47.90;;;;;;5031487;28;20472;-66
2023/06/29 05:43:43;;;;;;;2.40;2.20;;;26.20;47.80;;;;;;5031592;28;20168;-68
2023/06/29 05:46:09;;;;;;;3.87;2.50;;;26.20;48.00;;;;;;5031753;28;20192;-67
2023/06/29 05:48:34;;;;;;;3.10;2.70;;;26.20;48.10;;;;;;5031571;28;20168;-66
2023/06/29 05:51:00;;;;;;;3.50;2.63;;;26.20;48.20;;;;;;5031327;28;20200;-68
2023/06/29 05:53:25;;;;;;;4.43;2.90;;;26.20;48.30;;;;;;5031503;28;20233;-67
2023/06/29 05:55:51;;;;;;;2.10;1.90;;;26.20;48.30;;;;;;5031450;28;20206;-66
2023/06/29 05:58:16;;;;;;;3.20;2.57;;;26.20;48.30;;;;;;5031700;28;20179;-66
2023/06/29 06:00:42;;;;;;;3.03;2.73;;;26.20;48.40;;;;;;5031446;28;20179;-67
2023/06/29 06:03:08;;;;;;;3.50;2.87;;;26.20;48.40;;;;;;5031307;28;20286;-66
2023/06/29 06:05:33;;;;;;;5.93;2.60;;;26.20;48.40;;;;;;5031323;28;20215;-67
2023/06/29 06:07:59;;;;;;;2.47;2.07;;;26.20;48.30;;;;;;5031383;28;20172;-66
2023/06/29 06:10:24;;;;;;;3.00;2.40;;;26.20;48.30;;;;;;5031354;28;20204;-67
2023/06/29 06:12:50;;;;;;;3.30;2.53;;;26.20;48.30;;;;;;5031608;28;20787;-66
2023/06/29 06:15:16;;;;;;;3.27;2.60;;;26.20;48.30;;;;;;5034856;28;20258;-67
2023/06/29 06:17:41;;;;;;;3.57;2.70;;;26.20;48.30;;;;;;5034898;28;20172;-67
2023/06/29 06:20:09;;;;;;;4.20;2.47;;;26.20;48.20;;;;;;5034824;28;20180;-67
2023/06/29 06:22:34;;;;;;;2.90;2.53;;;26.20;48.20;;;;;;5033460;28;20199;-66
2023/06/29 06:25:00;;;;;;;3.37;2.60;;;26.20;48.20;;;;;;5034635;28;20419;-67
2023/06/29 06:27:25;;;;;;;2.80;2.13;;;26.30;48.20;;;;;;5034678;28;20171;-67
2023/06/29 06:29:51;;;;;;;2.60;2.40;;;26.30;48.20;;;;;;5033373;28;20281;-68
2023/06/29 06:32:19;;;;;;;4.23;2.97;;;26.30;48.20;;;;;;5034561;28;20167;-67
2023/06/29 06:34:45;;;;;;;2.90;2.47;;;26.30;48.20;;;;;;5034576;28;20541;-68
2023/06/29 06:37:11;;;;;;;3.93;2.53;;;26.30;48.10;;;;;;5034460;28;20537;-67
2023/06/29 06:39:37;;;;;;;2.67;2.30;;;26.30;48.10;;;;;;5034758;28;20521;-67
2023/06/29 06:42:02;;;;;;;2.90;2.60;;;26.30;48.10;;;;;;5034603;28;20202;-67
2023/06/29 06:44:28;;;;;;;3.23;2.83;;;26.30;48.10;;;;;;5034419;28;20172;-67
2023/06/29 06:46:54;;;;;;;3.60;2.57;;;26.30;48.10;;;;;;5034542;28;20200;-68
2023/06/29 06:49:20;;;;;;;2.83;2.63;;;26.30;48.10;;;;;;5034170;28;20268;-67
2023/06/29 06:51:45;;;;;;;2.80;2.40;;;26.30;48.00;;;;;;5034307;28;20237;-68
2023/06/29 06:54:11;;;;;;;4.17;2.80;;;26.30;48.00;;;;;;5034254;28;20199;-67
2023/06/29 06:56:37;;;;;;;2.83;2.37;;;26.40;48.10;;;;;;5034183;28;20242;-68
2023/06/29 06:59:03;;;;;;;2.93;2.50;;;26.30;48.00;;;;;;5034471;28;20175;-68
2023/06/29 07:01:28;;;;;;;3.00;2.70;;;26.30;48.00;;;;;;5034054;28;20454;-68
2023/06/29 07:03:54;;;;;;;3.10;2.57;;;26.30;47.90;;;;;;5034090;28;20509;-68
2023/06/29 07:06:19;;;;;;;2.77;2.47;;;26.30;47.90;;;;;;5034198;28;20273;-68
2023/06/29 07:08:45;;;;;;;3.53;2.40;;;26.30;47.90;;;;;;5033953;28;20176;-68
2023/06/29 07:11:11;;;;;;;4.00;2.40;;;26.40;48.00;;;;;;5032554;28;20172;-68
2023/06/29 07:13:37;;;;;;;3.40;2.50;;;26.30;47.90;;;;;;5033846;28;20406;-68
2023/06/29 07:16:05;;;;;;;3.20;2.73;;;26.40;47.90;;;;;;5033952;28;20215;-67
2023/06/29 07:18:33;;;;;;;3.13;2.70;;;26.30;47.80;;;;;;5033758;28;20430;-68
2023/06/29 07:20:59;;;;;;;3.60;2.20;;;26.30;47.80;;;;;;5033689;28;20403;-68
2023/06/29 07:23:24;;;;;;;2.30;2.10;;;26.30;47.80;;;;;;5033528;28;20449;-68
2023/06/29 07:25:50;;;;;;;5.90;2.77;;;26.30;47.70;;;;;;5033462;28;20604;-68
2023/06/29 07:28:16;;;;;;;4.33;2.70;;;26.40;47.80;;;;;;5033561;28;20259;-65
2023/06/29 07:30:41;;;;;;;2.50;2.00;;;26.40;47.80;;;;;;5033808;28;20176;-65
2023/06/29 07:33:07;;;;;;;3.00;2.23;;;26.30;47.70;;;;;;5033470;28;20258;-67
2023/06/29 07:35:33;;;;;;;3.30;2.57;;;26.40;47.80;;;;;;5032176;28;20194;-68
2023/06/29 07:37:58;;;;;;;2.97;2.30;;;26.30;47.70;;;;;;5033377;28;20637;-66
2023/06/29 07:40:24;;;;;;;2.77;2.40;;;26.30;47.70;;;;;;5033591;28;20184;-67
2023/06/29 07:42:49;;;;;;;3.13;2.67;;;26.40;47.80;;;;;;5033475;28;20207;-67
2023/06/29 07:45:15;;;;;;;2.87;2.57;;;26.40;47.80;;;;;;5033167;28;20306;-67
2023/06/29 07:47:41;;;;;;;4.40;2.63;;;26.40;47.70;;;;;;5033234;28;20163;-69
2023/06/29 07:50:07;;;;;;;3.30;2.90;;;26.40;47.70;;;;;;5033089;28;20179;-67
2023/06/29 07:52:33;;;;;;;2.47;2.23;;;26.40;47.70;;;;;;5032908;28;20897;-67
2023/06/29 07:54:59;;;;;;;2.50;2.30;;;26.40;47.70;;;;;;5033095;28;20442;-66
2023/06/29 07:57:24;;;;;;;2.73;2.53;;;26.40;47.70;;;;;;5031654;28;20574;-67
2023/06/29 07:59:50;;;;;;;3.40;2.50;;;26.40;47.70;;;;;;5032882;28;20180;-67
2023/06/29 08:02:15;;;;;;;3.50;3.13;;;26.40;47.70;;;;;;5032839;28;20207;-67
2023/06/29 08:04:41;;;;;;;4.10;2.60;;;26.40;47.70;;;;;;5032788;28;20528;-66
2023/06/29 08:07:07;;;;;;;2.60;2.40;;;26.40;47.70;;;;;;5032216;28;20192;-67
2023/06/29 08:09:33;;;;;;;2.13;1.93;;;26.40;47.70;;;;;;5032196;28;20160;-68
2023/06/29 08:11:58;;;;;;;3.27;2.33;;;26.40;47.70;;;;;;5032678;28;20406;-67
2023/06/29 08:14:24;;;;;;;2.97;2.50;;;26.40;47.70;;;;;;5032949;28;20207;-68
2023/06/29 08:16:49;;;;;;;4.63;3.13;;;26.40;47.70;;;;;;5032587;28;20623;-68
2023/06/29 08:19:15;;;;;;;2.93;2.13;;;26.40;47.70;;;;;;5032596;28;20179;-67
2023/06/29 08:21:41;;;;;;;3.00;2.50;;;26.40;47.70;;;;;;5032486;28;20195;-69
2023/06/29 08:24:08;;;;;;;2.23;2.03;;;26.40;47.60;;;;;;5032744;28;20171;-68
2023/06/29 08:26:34;;;;;;;3.43;2.63;;;26.40;47.60;;;;;;5032673;28;20430;-68
2023/06/29 08:29:00;;;;;;;3.37;2.50;;;26.40;47.60;;;;;;5032436;28;20410;-67
2023/06/29 08:31:26;;;;;;;4.20;2.33;;;26.40;47.70;;;;;;5032358;28;20409;-68
2023/06/29 08:33:52;;;;;;;3.20;2.47;;;26.40;47.60;;;;;;5032420;28;20194;-66
2023/06/29 08:36:17;;;;;;;2.53;2.30;;;26.40;47.60;;;;;;5031546;28;20184;-66
2023/06/29 08:38:46;;;;;;;2.90;2.40;;;26.40;47.60;;;;;;5032267;28;20641;-66
2023/06/29 08:41:13;;;;;;;3.23;2.40;;;26.40;47.50;;;;;;5032231;28;20172;-68
2023/06/29 08:43:40;;;;;;;3.73;2.30;;;26.40;47.50;;;;;;5032217;28;20783;-68
2023/06/29 08:46:06;;;;;;;2.97;2.67;;;26.40;47.50;;;;;;5032075;28;20426;-67
2023/06/29 08:48:34;;;;;;;3.40;2.53;;;26.40;47.50;;;;;;5032113;28;20402;-68
2023/06/29 08:51:03;;;;;;;5.10;2.50;;;26.40;47.40;;;;;;5032050;28;20462;-66
2023/06/29 08:53:29;;;;;;;2.70;2.30;;;26.40;47.40;;;;;;5032036;28;20506;-67
2023/06/29 08:55:56;;;;;;;2.70;2.30;;;26.40;47.40;;;;;;5032277;28;20509;-68
2023/06/29 08:58:24;;;;;;;2.17;1.97;;;26.40;47.40;;;;;;5032050;28;20179;-68
2023/06/29 09:00:51;;;;;;;3.20;2.77;;;26.40;48.00;;;;;;5031918;28;20422;-68
2023/06/29 09:03:17;;;;;;;4.33;2.80;;;26.40;47.40;;;;;;5031871;28;20490;-67
2023/06/29 09:05:45;;;;;;;4.60;2.43;;;26.40;47.40;;;;;;5032113;28;20434;-67
2023/06/29 09:08:11;;;;;;;3.00;2.80;;;26.40;47.30;;;;;;5030638;28;20501;-69
2023/06/29 09:10:42;;;;;;;2.63;2.43;;;26.40;47.30;;;;;;5031944;28;20956;-68
2023/06/29 09:13:09;;;;;;;3.33;2.17;;;26.40;47.30;;;;;;5031912;28;20440;-68
2023/06/29 09:15:37;;;;;;;4.43;2.40;;;26.40;47.30;;;;;;5031729;28;20442;-68
2023/06/29 09:18:02;;;;;;;2.77;2.27;;;26.40;47.20;;;;;;5032048;28;20489;-67
2023/06/29 09:20:36;;;;;;;2.97;2.20;;;26.40;47.20;;;;;;5032045;28;20498;-66
2023/06/29 09:23:04;;;;;;;3.10;2.50;;;26.40;47.20;;;;;;5031777;28;20187;-66
2023/06/29 09:25:30;;;;;;;2.70;2.40;;;26.40;47.20;;;;;;5031948;28;20798;-67
2023/06/29 09:28:06;;;;;;;4.30;2.60;;;26.40;47.20;;;;;;5031687;28;20485;-66
2023/06/29 09:30:40;;;;;;;2.70;2.43;;;26.40;47.10;;;;;;5031690;28;20410;-69
2023/06/29 09:33:10;;;;;;;2.53;2.33;;;26.40;47.10;;;;;;5031729;28;20387;-68
2023/06/29 09:36:05;;;;;;;2.30;2.10;;;26.40;47.10;;;;;;5030284;28;20477;-68
2023/06/29 09:38:31;;;;;;;3.50;2.20;;;26.40;47.00;;;;;;5031011;28;20445;-67
2023/06/29 09:40:59;;;;;;;3.13;2.80;;;26.40;47.20;;;;;;5031627;28;20501;-68
2023/06/29 09:43:28;;;;;;;2.90;2.17;;;26.40;47.00;;;;;;5031552;28;20481;-67
2023/06/29 09:46:21;;;;;;;3.30;2.37;;;26.40;46.90;;;;;;5031553;28;20845;-65
2023/06/29 09:48:47;;;;;;;2.57;2.37;;;26.40;47.50;;;;;;5033845;28;20422;-67
2023/06/29 09:51:23;;;;;;;2.50;2.30;;;26.40;47.00;;;;;;5035290;28;20437;-67
2023/06/29 09:53:48;;;;;;;2.97;2.20;;;26.40;46.90;;;;;;5035379;28;20401;-67
2023/06/29 09:56:16;;;;;;;2.70;2.10;;;26.40;46.90;;;;;;5035426;28;20433;-68
2023/06/29 09:58:42;;;;;;;2.40;2.17;;;26.40;46.90;;;;;;5035292;28;20209;-68
2023/06/29 10:01:09;;;;;;;4.20;2.20;;;26.40;47.40;;;;;;5035211;28;20402;-67
2023/06/29 10:03:35;;;;;;;2.40;2.10;;;26.40;46.90;;;;;;5035077;28;20206;-67
2023/06/29 10:06:11;;;;;;;2.57;2.20;;;26.40;46.90;;;;;;5035033;28;20438;-68
2023/06/29 10:08:40;;;;;;;3.17;2.70;;;26.40;46.80;;;;;;5035170;28;20160;-66
2023/06/29 10:11:05;;;;;;;2.57;2.10;;;26.40;46.80;;;;;;5035336;28;20895;-68
2023/06/29 10:13:42;;;;;;;3.37;1.87;;;26.40;46.80;;;;;;5035028;28;20489;-67
2023/06/29 10:16:10;;;;;;;2.43;2.23;;;26.40;46.70;;;;;;5033654;28;20209;-67
2023/06/29 10:18:40;;;;;;;3.33;2.10;;;26.40;46.70;;;;;;5034918;28;20445;-67
2023/06/29 10:21:06;;;;;;;2.30;2.10;;;26.40;46.70;;;;;;5035083;28;20406;-66
2023/06/29 10:23:34;;;;;;;2.90;2.67;;;26.40;46.60;;;;;;5034767;28;20832;-67
2023/06/29 10:26:02;;;;;;;2.77;2.07;;;26.40;46.60;;;;;;5034663;28;20517;-67
2023/06/29 10:28:28;;;;;;;9.13;2.27;;;26.40;46.70;;;;;;5034663;28;20403;-68
2023/06/29 10:30:59;;;;;;;3.33;2.10;;;26.40;46.60;;;;;;5034611;28;20402;-67
2023/06/29 10:33:26;;;;;;;2.83;2.10;;;26.40;46.60;;;;;;5034681;28;20824;-66
2023/06/29 10:35:58;;;;;;;2.90;2.40;;;26.40;46.60;;;;;;5034550;28;20576;-67
2023/06/29 10:38:31;;;;;;;3.70;2.40;;;26.40;46.60;;;;;;5034868;28;20398;-68
2023/06/29 10:40:57;;;;;;;2.30;2.10;;;26.40;46.60;;;;;;5034803;28;20441;-68
2023/06/29 10:43:28;;;;;;;2.30;2.10;;;26.40;46.60;;;;;;5034311;28;20450;-66
2023/06/29 10:45:53;;;;;;;2.63;2.33;;;26.40;46.60;;;;;;5034336;28;20716;-68
2023/06/29 10:48:19;;;;;;;2.13;1.90;;;26.40;46.60;;;;;;5034661;28;20545;-67
2023/06/29 10:50:47;;;;;;;3.10;2.20;;;26.40;46.60;;;;;;5034218;28;20317;-67
2023/06/29 10:53:15;;;;;;;2.30;2.10;;;26.40;46.60;;;;;;5034447;28;20411;-67
2023/06/29 10:55:51;;;;;;;2.63;2.23;;;26.40;46.60;;;;;;5033934;28;20430;-67
2023/06/29 10:58:24;;;;;;;3.60;2.13;;;26.40;46.50;;;;;;5033800;28;20413;-67
2023/06/29 11:00:51;;;;;;;2.47;2.27;;;26.40;47.10;;;;;;5033688;28;20946;-67
2023/06/29 11:03:18;;;;;;;2.20;2.00;;;26.40;46.60;;;;;;5034216;28;20545;-67
2023/06/29 11:05:47;;;;;;;2.83;2.10;;;26.40;46.60;;;;;;5032474;28;20426;-68
2023/06/29 11:08:13;;;;;;;3.30;3.00;;;26.40;46.50;;;;;;5033913;28;20414;-67
2023/06/29 11:10:39;;;;;;;7.00;4.53;;;26.40;46.50;;;;;;5034077;28;20733;-67
2023/06/29 11:13:09;;;;;;;12.60;8.60;;;26.40;46.50;;;;;;5033831;28;20259;-67
2023/06/29 11:15:35;;;;;;;27.97;20.20;;;26.40;46.50;;;;;;5034023;28;20223;-66
2023/06/29 11:18:05;;;;;;;44.90;29.97;;;26.40;46.50;;;;;;5033993;28;20509;-67
2023/06/29 11:20:33;;;;;;;61.37;40.13;;;26.40;46.50;;;;;;5033711;28;20793;-67
2023/06/29 11:22:59;;;;;;;84.07;54.63;;;26.40;46.50;;;;;;5033605;28;20458;-68
2023/06/29 11:25:27;;;;;;;102.90;68.43;;;26.40;46.50;;;;;;5033583;28;20438;-66
2023/06/29 11:27:53;;;;;;;115.33;77.03;;;26.40;46.50;;;;;;5033613;28;20452;-67
2023/06/29 11:30:20;;;;;;;134.47;90.90;;;26.40;46.50;;;;;;5033580;28;20410;-67
2023/06/29 11:32:50;;;;;;;144.67;94.07;;;26.40;46.50;;;;;;5033813;28;20206;-66
2023/06/29 11:35:17;;;;;;;151.07;100.73;;;26.40;46.60;;;;;;5033444;28;20792;-67
2023/06/29 11:37:42;;;;;;;166.33;107.13;;;26.40;46.60;;;;;;5033404;28;20438;-66
2023/06/29 11:40:20;;;;;;;156.23;106.90;;;26.40;46.60;;;;;;5033409;28;20441;-67
2023/06/29 11:42:48;;;;;;;158.30;109.70;;;26.50;46.70;;;;;;5033338;28;20223;-67
2023/06/29 11:45:14;;;;;;;167.03;113.40;;;26.40;46.60;;;;;;5033043;28;20929;-66
2023/06/29 11:47:39;;;;;;;170.87;114.07;;;26.40;46.70;;;;;;5033263;28;20403;-68
2023/06/29 11:50:07;;;;;;;164.93;110.40;;;26.50;46.70;;;;;;5033077;28;20620;-68
2023/06/29 11:52:34;;;;;;;152.73;109.00;;;26.50;46.80;;;;;;5033180;28;20176;-67
2023/06/29 11:55:02;;;;;;;161.17;107.37;;;26.50;46.80;;;;;;5033096;28;20506;-67
2023/06/29 11:57:32;;;;;;;137.63;95.47;;;26.50;46.80;;;;;;5033005;28;20406;-67
2023/06/29 11:59:57;;;;;;;140.50;95.27;;;26.50;46.80;;;;;;5033126;28;20430;-65
2023/06/29 12:02:23;;;;;;;133.93;85.23;;;26.50;46.90;;;;;;5033120;28;20478;-66
2023/06/29 12:04:58;;;;;;;117.80;84.37;;;26.50;46.90;;;;;;5032420;28;20172;-67
2023/06/29 12:07:37;;;;;;;133.37;89.77;;;26.50;46.90;;;;;;5032266;28;20570;-66
2023/06/29 12:10:20;;;;;;;124.80;81.20;;;26.40;46.80;;;;;;5032343;28;20407;-66
2023/06/29 12:12:55;;;;;;;126.00;85.03;;;26.50;46.90;;;;;;5032490;28;20399;-65
2023/06/29 12:15:25;;;;;;;117.80;81.37;;;26.40;46.90;;;;;;5032767;28;20927;-66
2023/06/29 12:17:53;;;;;;;107.70;72.57;;;26.40;47.00;;;;;;5032624;28;20441;-67
2023/06/29 12:20:22;;;;;;;119.77;77.50;;;26.40;47.00;;;;;;5032609;28;20413;-67
2023/06/29 12:22:51;;;;;;;97.50;62.43;;;26.40;46.90;;;;;;5032447;28;20496;-66
2023/06/29 12:25:18;;;;;;;86.83;62.73;;;26.40;47.00;;;;;;5032680;28;20422;-67
2023/06/29 12:27:45;;;;;;;82.17;58.13;;;26.50;47.00;;;;;;5032485;28;20925;-67
2023/06/29 12:30:14;;;;;;;91.90;59.70;;;26.40;46.90;;;;;;5032680;28;20782;-67
2023/06/29 12:32:49;;;;;;;78.83;55.33;;;26.40;47.00;;;;;;5032375;28;20799;-67
2023/06/29 12:35:17;;;;;;;81.90;58.70;;;26.40;47.00;;;;;;5032560;28;20441;-67
2023/06/29 12:37:44;;;;;;;82.77;57.63;;;26.40;47.00;;;;;;5032221;28;20414;-66
2023/06/29 12:40:10;;;;;;;67.13;49.70;;;26.40;47.00;;;;;;5032294;28;20479;-66
2023/06/29 12:42:37;;;;;;;68.47;45.50;;;26.40;47.00;;;;;;5032108;28;20442;-67